Terminal Aerodrome Forecast
Issued by NWS

Home | Current Version | Previous Version | Text Only | Print | Product List | Glossary On
Versions: 1 2 3 4 5 6 7 8 9 10 11 12 13 14 15 16 17 18
000
FTUS41 KBGM 271412 AAA
TAFITH
TAF AMD
KITH 271412Z 2714/2812 33010KT P6SM OVC015
      TEMPO 2714/2717 -SHRA OVC009
     FM271700 32012G18KT P6SM OVC025
      TEMPO 2717/2721 OVC015
     FM280100 33007KT P6SM OVC012=

USA.gov is the U.S. government's official web portal to all federal, state and local government web resources and services.